sensor_id;sensor_type;location;lat;lon;timestamp;pressure;altitude;pressure_sealevel;temperature;humidity
14232;BME280;7200;52.194;9.900;2022-11-20T00:00:51;99739.03;;;-3.48;100.00
14232;BME280;7200;52.194;9.900;2022-11-20T00:03:20;99729.53;;;-3.54;100.00
14232;BME280;7200;52.194;9.900;2022-11-20T00:05:45;99738.16;;;-3.47;100.00
14232;BME280;7200;52.194;9.900;2022-11-20T00:08:11;99739.88;;;-3.47;100.00
14232;BME280;7200;52.194;9.900;2022-11-20T00:10:40;99769.25;;;-3.33;100.00
14232;BME280;7200;52.194;9.900;2022-11-20T00:13:08;99743.38;;;-3.42;100.00
14232;BME280;7200;52.194;9.900;2022-11-20T00:15:33;99733.91;;;-3.46;100.00
14232;BME280;7200;52.194;9.900;2022-11-20T00:17:59;99711.34;;;-3.66;100.00
14232;BME280;7200;52.194;9.900;2022-11-20T00:20:24;99738.09;;;-3.55;100.00
14232;BME280;7200;52.194;9.900;2022-11-20T00:22:50;99762.34;;;-3.39;100.00
14232;BME280;7200;52.194;9.900;2022-11-20T00:25:19;99761.47;;;-3.38;100.00
14232;BME280;7200;52.194;9.900;2022-11-20T00:27:50;99749.44;;;-3.39;100.00
14232;BME280;7200;52.194;9.900;2022-11-20T00:30:16;99712.31;;;-3.58;100.00
14232;BME280;7200;52.194;9.900;2022-11-20T00:32:41;99682.00;;;-3.82;100.00
14232;BME280;7200;52.194;9.900;2022-11-20T00:35:06;99731.13;;;-3.65;100.00
14232;BME280;7200;52.194;9.900;2022-11-20T00:37:32;99749.31;;;-3.51;100.00
14232;BME280;7200;52.194;9.900;2022-11-20T00:39:57;99760.59;;;-3.40;100.00
14232;BME280;7200;52.194;9.900;2022-11-20T00:42:22;99702.75;;;-3.68;100.00
14232;BME280;7200;52.194;9.900;2022-11-20T00:44:48;99734.66;;;-3.55;100.00
14232;BME280;7200;52.194;9.900;2022-11-20T00:47:13;99650.84;;;-4.03;100.00
14232;BME280;7200;52.194;9.900;2022-11-20T00:49:38;99657.59;;;-4.15;100.00
14232;BME280;7200;52.194;9.900;2022-11-20T00:52:04;99689.53;;;-4.02;100.00
14232;BME280;7200;52.194;9.900;2022-11-20T00:54:29;99730.09;;;-3.81;100.00
14232;BME280;7200;52.194;9.900;2022-11-20T00:56:54;99729.31;;;-3.74;100.00
14232;BME280;7200;52.194;9.900;2022-11-20T00:59:20;99714.66;;;-3.82;100.00
14232;BME280;7200;52.194;9.900;2022-11-20T01:01:45;99730.22;;;-3.70;100.00
14232;BME280;7200;52.194;9.900;2022-11-20T01:04:10;99721.56;;;-3.75;100.00
14232;BME280;7200;52.194;9.900;2022-11-20T01:06:37;99725.88;;;-3.76;100.00
14232;BME280;7200;52.194;9.900;2022-11-20T01:09:11;99722.47;;;-3.72;100.00
14232;BME280;7200;52.194;9.900;2022-11-20T01:12:06;99725.09;;;-3.67;100.00
14232;BME280;7200;52.194;9.900;2022-11-20T01:14:32;99736.38;;;-3.57;100.00
14232;BME280;7200;52.194;9.900;2022-11-20T01:16:57;99702.72;;;-3.71;100.00
14232;BME280;7200;52.194;9.900;2022-11-20T01:19:23;99708.69;;;-3.78;100.00
14232;BME280;7200;52.194;9.900;2022-11-20T01:21:51;99692.34;;;-3.77;100.00
14232;BME280;7200;52.194;9.900;2022-11-20T01:24:19;99676.81;;;-3.88;100.00
14232;BME280;7200;52.194;9.900;2022-11-20T01:26:47;99679.38;;;-3.88;100.00
14232;BME280;7200;52.194;9.900;2022-11-20T01:29:16;99694.88;;;-3.83;100.00
14232;BME280;7200;52.194;9.900;2022-11-20T01:31:42;99683.69;;;-3.85;100.00
14232;BME280;7200;52.194;9.900;2022-11-20T01:34:14;99668.16;;;-3.93;100.00
14232;BME280;7200;52.194;9.900;2022-11-20T01:36:41;99657.81;;;-3.96;100.00
14232;BME280;7200;52.194;9.900;2022-11-20T01:39:13;99650.03;;;-4.02;100.00
14232;BME280;7200;52.194;9.900;2022-11-20T01:41:39;99632.69;;;-4.19;100.00
14232;BME280;7200;52.194;9.900;2022-11-20T01:44:58;99661.97;;;-4.09;100.00
14232;BME280;7200;52.194;9.900;2022-11-20T01:47:33;99659.38;;;-4.09;100.00
14232;BME280;7200;52.194;9.900;2022-11-20T01:52:34;99681.03;;;-3.90;100.00
14232;BME280;7200;52.194;9.900;2022-11-20T01:57:31;99631.03;;;-4.14;100.00
14232;BME280;7200;52.194;9.900;2022-11-20T02:00:11;99638.75;;;-4.14;100.00
14232;BME280;7200;52.194;9.900;2022-11-20T02:02:37;99654.31;;;-4.03;100.00
14232;BME280;7200;52.194;9.900;2022-11-20T02:05:12;99686.25;;;-3.85;100.00
14232;BME280;7200;52.194;9.900;2022-11-20T02:07:40;99663.03;;;-3.92;100.00
14232;BME280;7200;52.194;9.900;2022-11-20T02:10:05;99642.25;;;-4.05;100.00
14232;BME280;7200;52.194;9.900;2022-11-20T02:12:31;99584.44;;;-4.35;100.00
14232;BME280;7200;52.194;9.900;2022-11-20T02:15:15;99642.97;;;-4.19;100.00
14232;BME280;7200;52.194;9.900;2022-11-20T02:17:40;99677.50;;;-4.00;100.00
14232;BME280;7200;52.194;9.900;2022-11-20T02:20:06;99652.50;;;-4.12;100.00
14232;BME280;7200;52.194;9.900;2022-11-20T02:22:36;99636.94;;;-4.22;100.00
14232;BME280;7200;52.194;9.900;2022-11-20T02:25:04;99621.41;;;-4.28;100.00
14232;BME280;7200;52.194;9.900;2022-11-20T02:27:31;99635.19;;;-4.25;100.00
14232;BME280;7200;52.194;9.900;2022-11-20T02:30:00;99654.13;;;-4.18;100.00
14232;BME280;7200;52.194;9.900;2022-11-20T02:32:33;99657.59;;;-4.18;100.00
14232;BME280;7200;52.194;9.900;2022-11-20T02:35:06;99649.88;;;-4.18;100.00
14232;BME280;7200;52.194;9.900;2022-11-20T02:37:34;99660.13;;;-4.21;100.00
14232;BME280;7200;52.194;9.900;2022-11-20T02:40:02;99653.25;;;-4.20;100.00
14232;BME280;7200;52.194;9.900;2022-11-20T02:42:28;99648.97;;;-4.18;100.00
14232;BME280;7200;52.194;9.900;2022-11-20T02:44:53;99655.97;;;-4.08;100.00
14232;BME280;7200;52.194;9.900;2022-11-20T02:47:18;99633.56;;;-4.17;100.00
14232;BME280;7200;52.194;9.900;2022-11-20T02:49:43;99631.00;;;-4.15;100.00
14232;BME280;7200;52.194;9.900;2022-11-20T02:52:09;99618.06;;;-4.18;100.00
14232;BME280;7200;52.194;9.900;2022-11-20T02:54:34;99637.06;;;-4.07;100.00
14232;BME280;7200;52.194;9.900;2022-11-20T02:56:59;99656.97;;;-3.92;100.00
14232;BME280;7200;52.194;9.900;2022-11-20T02:59:24;99626.81;;;-4.04;100.00
14232;BME280;7200;52.194;9.900;2022-11-20T03:01:50;99610.41;;;-4.15;100.00
14232;BME280;7200;52.194;9.900;2022-11-20T03:04:15;99611.25;;;-4.18;100.00
14232;BME280;7200;52.194;9.900;2022-11-20T03:06:40;99579.38;;;-4.29;100.00
14232;BME280;7200;52.194;9.900;2022-11-20T03:09:06;99535.25;;;-4.63;100.00
14232;BME280;7200;52.194;9.900;2022-11-20T03:11:31;99530.84;;;-4.73;100.00
14232;BME280;7200;52.194;9.900;2022-11-20T03:13:56;99550.53;;;-4.78;100.00
14232;BME280;7200;52.194;9.900;2022-11-20T03:16:22;99538.41;;;-4.87;100.00
14232;BME280;7200;52.194;9.900;2022-11-20T03:18:48;99603.88;;;-4.62;100.00
14232;BME280;7200;52.194;9.900;2022-11-20T03:21:15;99652.31;;;-4.28;100.00
14232;BME280;7200;52.194;9.900;2022-11-20T03:23:41;99647.22;;;-4.22;100.00
14232;BME280;7200;52.194;9.900;2022-11-20T03:26:19;99626.59;;;-4.27;100.00
14232;BME280;7200;52.194;9.900;2022-11-20T03:28:50;99626.56;;;-4.30;100.00
14232;BME280;7200;52.194;9.900;2022-11-20T03:31:17;99586.94;;;-4.44;100.00
14232;BME280;7200;52.194;9.900;2022-11-20T03:33:43;99549.81;;;-4.65;100.00
14232;BME280;7200;52.194;9.900;2022-11-20T03:36:12;99573.88;;;-4.60;100.00
14232;BME280;7200;52.194;9.900;2022-11-20T03:38:38;99562.69;;;-4.65;100.00
14232;BME280;7200;52.194;9.900;2022-11-20T03:41:23;99571.25;;;-4.64;100.00
14232;BME280;7200;52.194;9.900;2022-11-20T03:43:57;99600.59;;;-4.52;100.00
14232;BME280;7200;52.194;9.900;2022-11-20T03:46:23;99602.28;;;-4.52;100.00
14232;BME280;7200;52.194;9.900;2022-11-20T03:48:49;99612.69;;;-4.41;100.00
14232;BME280;7200;52.194;9.900;2022-11-20T03:51:26;99611.06;;;-4.35;100.00
14232;BME280;7200;52.194;9.900;2022-11-20T03:53:55;99623.19;;;-4.23;100.00
14232;BME280;7200;52.194;9.900;2022-11-20T03:56:26;99610.28;;;-4.26;100.00
14232;BME280;7200;52.194;9.900;2022-11-20T03:58:52;99603.41;;;-4.28;100.00
14232;BME280;7200;52.194;9.900;2022-11-20T04:01:20;99591.31;;;-4.34;100.00
14232;BME280;7200;52.194;9.900;2022-11-20T04:03:46;99561.97;;;-4.48;100.00
14232;BME280;7200;52.194;9.900;2022-11-20T04:06:20;99553.38;;;-4.52;100.00
14232;BME280;7200;52.194;9.900;2022-11-20T04:08:45;99538.72;;;-4.61;100.00
14232;BME280;7200;52.194;9.900;2022-11-20T04:11:22;99501.59;;;-4.81;100.00
14232;BME280;7200;52.194;9.900;2022-11-20T04:13:50;99535.16;;;-4.72;100.00
14232;BME280;7200;52.194;9.900;2022-11-20T04:16:16;99592.06;;;-4.43;100.00
14232;BME280;7200;52.194;9.900;2022-11-20T04:18:42;99582.69;;;-4.39;100.00
14232;BME280;7200;52.194;9.900;2022-11-20T04:21:08;99597.38;;;-4.31;100.00
14232;BME280;7200;52.194;9.900;2022-11-20T04:23:34;99524.97;;;-4.63;100.00
14232;BME280;7200;52.194;9.900;2022-11-20T04:26:06;99530.97;;;-4.62;100.00
14232;BME280;7200;52.194;9.900;2022-11-20T04:28:32;99546.44;;;-4.59;100.00
14232;BME280;7200;52.194;9.900;2022-11-20T04:31:09;99536.06;;;-4.67;100.00
14232;BME280;7200;52.194;9.900;2022-11-20T04:33:36;99549.88;;;-4.59;100.00
14232;BME280;7200;52.194;9.900;2022-11-20T04:36:07;99575.75;;;-4.45;100.00
14232;BME280;7200;52.194;9.900;2022-11-20T04:38:33;99586.16;;;-4.34;100.00
14232;BME280;7200;52.194;9.900;2022-11-20T04:41:02;99606.00;;;-4.24;100.00
14232;BME280;7200;52.194;9.900;2022-11-20T04:43:27;99594.78;;;-4.32;100.00
14232;BME280;7200;52.194;9.900;2022-11-20T04:45:54;99606.06;;;-4.19;100.00
14232;BME280;7200;52.194;9.900;2022-11-20T04:48:19;99572.50;;;-4.28;100.00
14232;BME280;7200;52.194;9.900;2022-11-20T04:50:45;99577.69;;;-4.25;100.00
14232;BME280;7200;52.194;9.900;2022-11-20T04:53:10;99570.75;;;-4.33;100.00
14232;BME280;7200;52.194;9.900;2022-11-20T04:55:35;99561.19;;;-4.41;100.00
14232;BME280;7200;52.194;9.900;2022-11-20T04:58:00;99591.38;;;-4.31;100.00
14232;BME280;7200;52.194;9.900;2022-11-20T05:00:26;99599.13;;;-4.25;100.00
14232;BME280;7200;52.194;9.900;2022-11-20T05:02:51;99606.00;;;-4.24;100.00
14232;BME280;7200;52.194;9.900;2022-11-20T05:05:16;99636.22;;;-4.11;100.00
14232;BME280;7200;52.194;9.900;2022-11-20T05:07:42;99625.03;;;-4.09;100.00
14232;BME280;7200;52.194;9.900;2022-11-20T05:10:07;99637.97;;;-4.05;100.00
14232;BME280;7200;52.194;9.900;2022-11-20T05:12:33;99666.47;;;-3.86;100.00
14232;BME280;7200;52.194;9.900;2022-11-20T05:14:58;99641.50;;;-3.92;100.00
14232;BME280;7200;52.194;9.900;2022-11-20T05:17:23;99635.50;;;-3.93;100.00
14232;BME280;7200;52.194;9.900;2022-11-20T05:19:48;99655.38;;;-3.82;100.00
14232;BME280;7200;52.194;9.900;2022-11-20T05:22:14;99639.00;;;-3.84;100.00
14232;BME280;7200;52.194;9.900;2022-11-20T05:24:39;99633.88;;;-3.86;100.00
14232;BME280;7200;52.194;9.900;2022-11-20T05:27:04;99644.25;;;-3.78;100.00
14232;BME280;7200;52.194;9.900;2022-11-20T05:29:29;99593.34;;;-4.02;100.00
14232;BME280;7200;52.194;9.900;2022-11-20T05:31:55;99619.19;;;-3.90;100.00
14232;BME280;7200;52.194;9.900;2022-11-20T05:34:20;99650.31;;;-3.70;100.00
14232;BME280;7200;52.194;9.900;2022-11-20T05:36:45;99617.56;;;-3.82;100.00
14232;BME280;7200;52.194;9.900;2022-11-20T05:39:10;99613.22;;;-3.84;100.00
14232;BME280;7200;52.194;9.900;2022-11-20T05:41:36;99593.38;;;-3.96;100.00
14232;BME280;7200;52.194;9.900;2022-11-20T05:44:01;99583.06;;;-4.01;100.00
14232;BME280;7200;52.194;9.900;2022-11-20T05:46:26;99561.44;;;-4.17;100.00
14232;BME280;7200;52.194;9.900;2022-11-20T05:48:52;99561.34;;;-4.27;100.00
14232;BME280;7200;52.194;9.900;2022-11-20T05:51:18;99566.50;;;-4.27;100.00
14232;BME280;7200;52.194;9.900;2022-11-20T05:53:44;99581.97;;;-4.27;100.00
14232;BME280;7200;52.194;9.900;2022-11-20T05:56:13;99619.84;;;-4.13;100.00
14232;BME280;7200;52.194;9.900;2022-11-20T05:58:39;99614.63;;;-4.22;100.00
14232;BME280;7200;52.194;9.900;2022-11-20T06:01:10;99649.97;;;-4.08;100.00
14232;BME280;7200;52.194;9.900;2022-11-20T06:03:36;99647.38;;;-4.10;100.00
14232;BME280;7200;52.194;9.900;2022-11-20T06:06:04;99613.69;;;-4.30;100.00
14232;BME280;7200;52.194;9.900;2022-11-20T06:08:29;99623.06;;;-4.35;100.00
14232;BME280;7200;52.194;9.900;2022-11-20T06:10:55;99666.22;;;-4.13;100.00
14232;BME280;7200;52.194;9.900;2022-11-20T06:13:20;99668.00;;;-4.07;100.00
14232;BME280;7200;52.194;9.900;2022-11-20T06:15:49;99690.47;;;-3.92;100.00
14232;BME280;7200;52.194;9.900;2022-11-20T06:18:15;99707.75;;;-3.83;100.00
14232;BME280;7200;52.194;9.900;2022-11-20T06:20:40;99686.22;;;-3.92;100.00
14232;BME280;7200;52.194;9.900;2022-11-20T06:23:05;99687.91;;;-3.91;100.00
14232;BME280;7200;52.194;9.900;2022-11-20T06:25:31;99702.63;;;-3.79;100.00
14232;BME280;7200;52.194;9.900;2022-11-20T06:27:56;99729.44;;;-3.63;100.00
14232;BME280;7200;52.194;9.900;2022-11-20T06:30:21;99746.78;;;-3.45;100.00
14232;BME280;7200;52.194;9.900;2022-11-20T06:32:46;99739.09;;;-3.37;100.00
14232;BME280;7200;52.194;9.900;2022-11-20T06:35:12;99745.22;;;-3.29;100.00
14232;BME280;7200;52.194;9.900;2022-11-20T06:37:37;99728.88;;;-3.31;100.00
14232;BME280;7200;52.194;9.900;2022-11-20T06:40:03;99724.56;;;-3.29;100.00
14232;BME280;7200;52.194;9.900;2022-11-20T06:42:28;99713.38;;;-3.31;100.00
14232;BME280;7200;52.194;9.900;2022-11-20T06:44:53;99715.97;;;-3.28;100.00
14232;BME280;7200;52.194;9.900;2022-11-20T06:47:18;99729.84;;;-3.14;100.00
14232;BME280;7200;52.194;9.900;2022-11-20T06:49:44;99727.31;;;-3.07;100.00
14232;BME280;7200;52.194;9.900;2022-11-20T06:52:09;99729.97;;;-3.01;100.00
14232;BME280;7200;52.194;9.900;2022-11-20T06:54:34;99739.50;;;-2.88;100.00
14232;BME280;7200;52.194;9.900;2022-11-20T06:56:59;99719.63;;;-2.98;100.00
14232;BME280;7200;52.194;9.900;2022-11-20T06:59:25;99702.41;;;-3.02;100.00
14232;BME280;7200;52.194;9.900;2022-11-20T07:01:50;99674.75;;;-3.23;100.00
14232;BME280;7200;52.194;9.900;2022-11-20T07:04:15;99687.72;;;-3.14;100.00
14232;BME280;7200;52.194;9.900;2022-11-20T07:06:40;99696.38;;;-3.04;100.00
14232;BME280;7200;52.194;9.900;2022-11-20T07:09:06;99692.09;;;-3.02;100.00
14232;BME280;7200;52.194;9.900;2022-11-20T07:11:31;99682.63;;;-3.02;100.00
14232;BME280;7200;52.194;9.900;2022-11-20T07:13:56;99681.78;;;-3.02;100.00
14232;BME280;7200;52.194;9.900;2022-11-20T07:16:22;99680.03;;;-3.03;100.00
14232;BME280;7200;52.194;9.900;2022-11-20T07:18:47;99686.09;;;-3.01;100.00
14232;BME280;7200;52.194;9.900;2022-11-20T07:21:12;99688.69;;;-3.01;100.00
14232;BME280;7200;52.194;9.900;2022-11-20T07:23:37;99706.81;;;-2.89;100.00
14232;BME280;7200;52.194;9.900;2022-11-20T07:26:07;99717.19;;;-2.80;100.00
14232;BME280;7200;52.194;9.900;2022-11-20T07:28:33;99693.91;;;-2.83;100.00
14232;BME280;7200;52.194;9.900;2022-11-20T07:30:59;99693.91;;;-2.83;100.00
14232;BME280;7200;52.194;9.900;2022-11-20T07:33:24;99682.72;;;-2.88;100.00
14232;BME280;7200;52.194;9.900;2022-11-20T07:35:49;99711.19;;;-2.79;100.00
14232;BME280;7200;52.194;9.900;2022-11-20T07:38:16;99715.50;;;-2.75;100.00
14232;BME280;7200;52.194;9.900;2022-11-20T07:40:41;99724.13;;;-2.68;100.00
14232;BME280;7200;52.194;9.900;2022-11-20T07:43:06;99737.09;;;-2.60;100.00
14232;BME280;7200;52.194;9.900;2022-11-20T07:45:32;99735.38;;;-2.58;100.00
14232;BME280;7200;52.194;9.900;2022-11-20T07:47:57;99741.44;;;-2.53;100.00
14232;BME280;7200;52.194;9.900;2022-11-20T07:50:22;99769.09;;;-2.35;100.00
14232;BME280;7200;52.194;9.900;2022-11-20T07:52:48;99761.34;;;-2.35;100.00
14232;BME280;7200;52.194;9.900;2022-11-20T07:55:14;99764.81;;;-2.31;100.00
14232;BME280;7200;52.194;9.900;2022-11-20T07:57:39;99763.09;;;-2.26;100.00
14232;BME280;7200;52.194;9.900;2022-11-20T08:00:06;99765.69;;;-2.29;100.00
14232;BME280;7200;52.194;9.900;2022-11-20T08:02:34;99774.34;;;-2.17;100.00
14232;BME280;7200;52.194;9.900;2022-11-20T08:05:01;99783.81;;;-2.16;100.00
14232;BME280;7200;52.194;9.900;2022-11-20T08:07:26;99775.22;;;-2.13;100.00
14232;BME280;7200;52.194;9.900;2022-11-20T08:09:52;99741.56;;;-2.27;100.00
14232;BME280;7200;52.194;9.900;2022-11-20T08:12:20;99751.94;;;-2.22;100.00
14232;BME280;7200;52.194;9.900;2022-11-20T08:15:05;99765.72;;;-2.16;100.00
14232;BME280;7200;52.194;9.900;2022-11-20T08:17:30;99779.56;;;-2.06;100.00
14232;BME280;7200;52.194;9.900;2022-11-20T08:19:55;99783.00;;;-2.04;100.00
14232;BME280;7200;52.194;9.900;2022-11-20T08:22:21;99783.03;;;-2.05;100.00
14232;BME280;7200;52.194;9.900;2022-11-20T08:24:46;99776.13;;;-2.05;100.00
14232;BME280;7200;52.194;9.900;2022-11-20T08:27:12;99761.41;;;-2.15;100.00
14232;BME280;7200;52.194;9.900;2022-11-20T08:29:37;99744.13;;;-2.28;100.00
14232;BME280;7200;52.194;9.900;2022-11-20T08:32:02;99732.03;;;-2.39;100.00
14232;BME280;7200;52.194;9.900;2022-11-20T08:34:28;99747.56;;;-2.34;100.00
14232;BME280;7200;52.194;9.900;2022-11-20T08:36:53;99771.78;;;-2.17;100.00
14232;BME280;7200;52.194;9.900;2022-11-20T08:39:18;99789.03;;;-2.06;100.00
14232;BME280;7200;52.194;9.900;2022-11-20T08:41:44;99798.53;;;-1.96;100.00
14232;BME280;7200;52.194;9.900;2022-11-20T08:44:09;99798.56;;;-1.87;100.00
14232;BME280;7200;52.194;9.900;2022-11-20T08:46:39;99795.16;;;-1.84;100.00
14232;BME280;7200;52.194;9.900;2022-11-20T08:49:08;99796.88;;;-1.82;100.00
14232;BME280;7200;52.194;9.900;2022-11-20T08:51:35;99802.06;;;-1.76;100.00
14232;BME280;7200;52.194;9.900;2022-11-20T08:54:00;99796.94;;;-1.71;100.00
14232;BME280;7200;52.194;9.900;2022-11-20T08:56:26;99741.69;;;-1.98;100.00
14232;BME280;7200;52.194;9.900;2022-11-20T08:58:51;99704.63;;;-1.97;100.00
14232;BME280;7200;52.194;9.900;2022-11-20T09:01:18;99668.47;;;-1.93;100.00
14232;BME280;7200;52.194;9.900;2022-11-20T09:03:44;99664.16;;;-1.71;100.00
14232;BME280;7200;52.194;9.900;2022-11-20T09:06:10;99646.94;;;-1.62;100.00
14232;BME280;7200;52.194;9.900;2022-11-20T09:08:35;99636.59;;;-1.45;100.00
14232;BME280;7200;52.194;9.900;2022-11-20T09:11:01;99597.78;;;-1.49;100.00
14232;BME280;7200;52.194;9.900;2022-11-20T09:13:28;99583.13;;;-1.43;100.00
14232;BME280;7200;52.194;9.900;2022-11-20T09:15:58;99596.00;;;-1.20;100.00
14232;BME280;7200;52.194;9.900;2022-11-20T09:18:24;99589.09;;;-1.13;100.00
14232;BME280;7200;52.194;9.900;2022-11-20T09:20:50;99591.66;;;-1.08;100.00
14232;BME280;7200;52.194;9.900;2022-11-20T09:23:16;99579.59;;;-1.09;100.00
14232;BME280;7200;52.194;9.900;2022-11-20T09:25:41;99571.81;;;-1.05;100.00
14232;BME280;7200;52.194;9.900;2022-11-20T09:28:06;99520.06;;;-1.15;100.00
14232;BME280;7200;52.194;9.900;2022-11-20T09:30:32;99484.75;;;-1.27;100.00
14232;BME280;7200;52.194;9.900;2022-11-20T09:32:58;99472.69;;;-1.30;100.00
14232;BME280;7200;52.194;9.900;2022-11-20T09:35:23;99477.84;;;-1.28;100.00
14232;BME280;7200;52.194;9.900;2022-11-20T09:37:48;99492.50;;;-1.21;100.00
14232;BME280;7200;52.194;9.900;2022-11-20T09:42:58;99527.66;;;-0.72;100.00
14232;BME280;7200;52.194;9.900;2022-11-20T09:48:51;99457.78;;;-0.82;100.00
14232;BME280;7200;52.194;9.900;2022-11-20T09:51:44;99474.97;;;-0.65;100.00
14232;BME280;7200;52.194;9.900;2022-11-20T09:54:16;99420.72;;;-0.88;100.00
14232;BME280;7200;52.194;9.900;2022-11-20T09:56:46;99404.34;;;-0.98;100.00
14232;BME280;7200;52.194;9.900;2022-11-20T10:01:48;99356.25;;;-1.30;100.00
14232;BME280;7200;52.194;9.900;2022-11-20T10:04:16;99327.88;;;-1.44;100.00
14232;BME280;7200;52.194;9.900;2022-11-20T10:09:30;99382.06;;;-1.14;100.00
14232;BME280;7200;52.194;9.900;2022-11-20T10:20:41;99457.47;;;-0.34;100.00
14232;BME280;7200;52.194;9.900;2022-11-20T10:26:22;99446.06;;;-0.11;100.00
14232;BME280;7200;52.194;9.900;2022-11-20T10:31:34;99453.78;;;-0.10;100.00
14232;BME280;7200;52.194;9.900;2022-11-20T10:34:06;99386.75;;;-0.47;100.00
14232;BME280;7200;52.194;9.900;2022-11-20T10:36:46;99416.03;;;-0.40;100.00
14232;BME280;7200;52.194;9.900;2022-11-20T10:39:21;99428.13;;;-0.37;100.00
14232;BME280;7200;52.194;9.900;2022-11-20T10:41:50;99410.91;;;-0.46;100.00
14232;BME280;7200;52.194;9.900;2022-11-20T10:44:19;99434.16;;;-0.37;100.00
14232;BME280;7200;52.194;9.900;2022-11-20T10:47:05;99428.97;;;-0.35;100.00
14232;BME280;7200;52.194;9.900;2022-11-20T10:49:34;99399.72;;;-0.48;100.00
14232;BME280;7200;52.194;9.900;2022-11-20T10:54:51;99395.56;;;-0.69;100.00
14232;BME280;7200;52.194;9.900;2022-11-20T10:57:52;99422.25;;;-0.64;100.00
14232;BME280;7200;52.194;9.900;2022-11-20T11:00:20;99410.22;;;-0.70;100.00
14232;BME280;7200;52.194;9.900;2022-11-20T11:02:53;99436.03;;;-0.56;100.00
14232;BME280;7200;52.194;9.900;2022-11-20T11:07:54;99418.81;;;-0.66;100.00
14232;BME280;7200;52.194;9.900;2022-11-20T11:10:37;99424.78;;;-0.55;100.00
14232;BME280;7200;52.194;9.900;2022-11-20T11:13:06;99410.97;;;-0.52;100.00
14232;BME280;7200;52.194;9.900;2022-11-20T11:15:39;99405.75;;;-0.48;100.00
14232;BME280;7200;52.194;9.900;2022-11-20T11:18:08;99357.50;;;-0.64;100.00
14232;BME280;7200;52.194;9.900;2022-11-20T11:20:34;99356.66;;;-0.63;100.00
14232;BME280;7200;52.194;9.900;2022-11-20T11:23:00;99385.84;;;-0.44;100.00
14232;BME280;7200;52.194;9.900;2022-11-20T11:25:30;99347.13;;;-0.61;100.00
14232;BME280;7200;52.194;9.900;2022-11-20T11:28:00;99380.69;;;-0.47;100.00
14232;BME280;7200;52.194;9.900;2022-11-20T11:30:28;99389.22;;;-0.34;100.00
14232;BME280;7200;52.194;9.900;2022-11-20T11:33:05;99358.19;;;-0.42;100.00
14232;BME280;7200;52.194;9.900;2022-11-20T11:35:31;99353.06;;;-0.45;100.00
14232;BME280;7200;52.194;9.900;2022-11-20T11:38:13;99351.31;;;-0.43;100.00
14232;BME280;7200;52.194;9.900;2022-11-20T11:40:40;99367.63;;;-0.33;100.00
14232;BME280;7200;52.194;9.900;2022-11-20T11:43:15;99387.34;;;-0.18;100.00
14232;BME280;7200;52.194;9.900;2022-11-20T11:46:01;99384.63;;;-0.05;100.00
14232;BME280;7200;52.194;9.900;2022-11-20T11:48:27;99381.16;;;-0.05;100.00
14232;BME280;7200;52.194;9.900;2022-11-20T11:50:52;99348.47;;;-0.17;100.00
14232;BME280;7200;52.194;9.900;2022-11-20T11:53:21;99361.38;;;-0.12;100.00
14232;BME280;7200;52.194;9.900;2022-11-20T11:55:58;99381.09;;;-0.01;100.00
14232;BME280;7200;52.194;9.900;2022-11-20T11:58:40;99387.94;;;0.08;100.00
14232;BME280;7200;52.194;9.900;2022-11-20T12:04:14;99395.50;;;0.28;100.00
14232;BME280;7200;52.194;9.900;2022-11-20T12:06:39;99399.72;;;0.37;100.00
14232;BME280;7200;52.194;9.900;2022-11-20T12:09:11;99375.53;;;0.35;100.00
14232;BME280;7200;52.194;9.900;2022-11-20T12:11:58;99368.50;;;0.43;100.00
14232;BME280;7200;52.194;9.900;2022-11-20T12:14:37;99350.41;;;0.38;100.00
14232;BME280;7200;52.194;9.900;2022-11-20T12:17:05;99346.13;;;0.36;100.00
14232;BME280;7200;52.194;9.900;2022-11-20T12:19:33;99310.03;;;0.19;100.00
14232;BME280;7200;52.194;9.900;2022-11-20T12:22:06;99321.16;;;0.26;100.00
14232;BME280;7200;52.194;9.900;2022-11-20T12:24:54;99327.19;;;0.26;100.00
14232;BME280;7200;52.194;9.900;2022-11-20T12:30:14;99296.38;;;0.03;100.00
14232;BME280;7200;52.194;9.900;2022-11-20T12:33:04;99334.31;;;0.10;100.00
14232;BME280;7200;52.194;9.900;2022-11-20T12:35:51;99385.81;;;0.44;100.00
14232;BME280;7200;52.194;9.900;2022-11-20T12:44:06;99440.16;;;1.22;100.00
14232;BME280;7200;52.194;9.900;2022-11-20T12:49:56;99400.75;;;0.92;100.00
14232;BME280;7200;52.194;9.900;2022-11-20T12:52:37;99363.78;;;0.74;100.00
14232;BME280;7200;52.194;9.900;2022-11-20T12:55:20;99382.88;;;0.72;100.00
14232;BME280;7200;52.194;9.900;2022-11-20T12:57:58;99369.91;;;0.69;100.00
14232;BME280;7200;52.194;9.900;2022-11-20T13:00:25;99386.25;;;0.77;100.00
14232;BME280;7200;52.194;9.900;2022-11-20T13:03:03;99380.09;;;0.83;100.00
14232;BME280;7200;52.194;9.900;2022-11-20T13:08:02;99400.59;;;1.04;100.00
14232;BME280;7200;52.194;9.900;2022-11-20T13:10:51;99354.94;;;0.89;100.00
14232;BME280;7200;52.194;9.900;2022-11-20T13:18:25;99343.84;;;0.78;100.00
14232;BME280;7200;52.194;9.900;2022-11-20T13:20:50;99356.81;;;0.80;100.00
14232;BME280;7200;52.194;9.900;2022-11-20T13:23:27;99359.31;;;0.84;100.00
14232;BME280;7200;52.194;9.900;2022-11-20T13:26:31;99366.22;;;0.87;100.00
14232;BME280;7200;52.194;9.900;2022-11-20T13:29:24;99355.91;;;0.79;100.00
14232;BME280;7200;52.194;9.900;2022-11-20T13:31:49;99374.91;;;0.83;100.00
14232;BME280;7200;52.194;9.900;2022-11-20T13:34:25;99375.69;;;0.91;100.00
14232;BME280;7200;52.194;9.900;2022-11-20T13:36:53;99391.03;;;1.08;100.00
14232;BME280;7200;52.194;9.900;2022-11-20T13:39:27;99445.84;;;1.47;100.00
14232;BME280;7200;52.194;9.900;2022-11-20T13:41:57;99421.59;;;1.46;100.00
14232;BME280;7200;52.194;9.900;2022-11-20T13:44:35;99428.28;;;1.64;100.00
14232;BME280;7200;52.194;9.900;2022-11-20T13:47:03;99392.72;;;1.65;100.00
14232;BME280;7200;52.194;9.900;2022-11-20T13:49:33;99380.56;;;1.67;100.00
14232;BME280;7200;52.194;9.900;2022-11-20T13:52:15;99367.44;;;1.73;100.00
14232;BME280;7200;52.194;9.900;2022-11-20T13:58:24;99325.97;;;1.65;100.00
14232;BME280;7200;52.194;9.900;2022-11-20T14:01:00;99303.63;;;1.57;100.00
14232;BME280;7200;52.194;9.900;2022-11-20T14:03:29;99319.88;;;1.68;100.00
14232;BME280;7200;52.194;9.900;2022-11-20T14:05:59;99316.50;;;1.63;100.00
14232;BME280;7200;52.194;9.900;2022-11-20T14:08:40;99355.94;;;1.86;100.00
14232;BME280;7200;52.194;9.900;2022-11-20T14:11:18;99311.13;;;1.72;100.00
14232;BME280;7200;52.194;9.900;2022-11-20T14:14:15;99307.63;;;1.73;100.00